CFG215 LFPG-EDDS
Flight info
| Callsign | CFG215 |
|---|---|
| Flight time | N/A |
| Altitude | 23000 |
| Route | LANVI DCT LUPEN T126 REUTL REUTL1W |
| Aircraft | A320/M-SDE3FGHIRWY/LB1 |
Departure
| Time | 2026-05-07 14:00 |
|---|---|
| Airport | Charles de Gaulle International Airport (LFPG) |
Arrival
| Time | N/A |
|---|---|
| Airport | Stuttgart Airport (EDDS) |
| Time | Latitude | Longitude | Altitude | Speed | Heading |
|---|---|---|---|---|---|
| 2026-05-07 13:22 | 49.00127 | 2.58423 | 355 ft | 0 kts | 85° |
| 2026-05-07 13:46 | 49.00126 | 2.58404 | 354 ft | 4 kts | 88° |
| 2026-05-07 13:46 | 49.00127 | 2.58363 | 360 ft | 4 kts | 102° |
| 2026-05-07 13:46 | 49.00136 | 2.58326 | 357 ft | 4 kts | 133° |
| 2026-05-07 13:46 | 49.00151 | 2.58312 | 354 ft | 1 kts | 177° |
| 2026-05-07 13:47 | 49.00154 | 2.58311 | 354 ft | 0 kts | 177° |
| 2026-05-07 13:49 | 49.00146 | 2.58312 | 359 ft | 7 kts | 177° |
| 2026-05-07 13:49 | 49.00085 | 2.58317 | 360 ft | 8 kts | 176° |
| 2026-05-07 13:50 | 49.00028 | 2.58314 | 360 ft | 11 kts | 192° |
| 2026-05-07 13:50 | 48.99947 | 2.58280 | 359 ft | 11 kts | 208° |
| 2026-05-07 13:50 | 48.99915 | 2.58186 | 362 ft | 11 kts | 264° |
| 2026-05-07 13:50 | 48.99908 | 2.58080 | 360 ft | 9 kts | 265° |
| 2026-05-07 13:51 | 48.99905 | 2.58014 | 354 ft | 13 kts | 265° |
| 2026-05-07 13:51 | 48.99902 | 2.57959 | 357 ft | 13 kts | 265° |
| 2026-05-07 13:51 | 48.99895 | 2.57825 | 354 ft | 12 kts | 265° |
| 2026-05-07 13:52 | 48.99889 | 2.57703 | 360 ft | 11 kts | 265° |
| 2026-05-07 13:52 | 48.99883 | 2.57595 | 360 ft | 9 kts | 265° |
| 2026-05-07 13:52 | 48.99878 | 2.57501 | 361 ft | 8 kts | 265° |
| 2026-05-07 13:52 | 48.99873 | 2.57421 | 360 ft | 7 kts | 265° |
| 2026-05-07 13:53 | 48.99869 | 2.57351 | 362 ft | 6 kts | 265° |
| 2026-05-07 13:53 | 48.99866 | 2.57287 | 360 ft | 10 kts | 265° |
| 2026-05-07 13:53 | 48.99858 | 2.57141 | 357 ft | 14 kts | 266° |
| 2026-05-07 13:53 | 48.99856 | 2.57088 | 354 ft | 14 kts | 266° |
| 2026-05-07 13:54 | 48.99852 | 2.57002 | 354 ft | 14 kts | 266° |
| 2026-05-07 13:54 | 48.99851 | 2.56991 | 354 ft | 13 kts | 266° |
| 2026-05-07 13:54 | 48.99846 | 2.56882 | 358 ft | 14 kts | 265° |
| 2026-05-07 13:55 | 48.99836 | 2.56710 | 359 ft | 18 kts | 265° |
| 2026-05-07 13:55 | 48.99825 | 2.56516 | 359 ft | 19 kts | 265° |
| 2026-05-07 13:55 | 48.99815 | 2.56312 | 358 ft | 20 kts | 265° |
| 2026-05-07 13:55 | 48.99805 | 2.56145 | 356 ft | 16 kts | 265° |
| 2026-05-07 13:56 | 48.99802 | 2.56085 | 357 ft | 16 kts | 265° |
| 2026-05-07 13:56 | 48.99796 | 2.55945 | 362 ft | 10 kts | 266° |
| 2026-05-07 13:56 | 48.99791 | 2.55893 | 358 ft | 5 kts | 254° |
| 2026-05-07 13:57 | 48.99776 | 2.55847 | 361 ft | 4 kts | 233° |
| 2026-05-07 13:57 | 48.99745 | 2.55815 | 357 ft | 7 kts | 204° |
| 2026-05-07 13:57 | 48.99711 | 2.55814 | 360 ft | 0 kts | 176° |
| 2026-05-07 13:58 | 48.99676 | 2.55817 | 357 ft | 8 kts | 176° |
| 2026-05-07 13:59 | 48.99630 | 2.55827 | 358 ft | 6 kts | 164° |
| 2026-05-07 13:59 | 48.99606 | 2.55876 | 355 ft | 5 kts | 103° |
| 2026-05-07 13:59 | 48.99606 | 2.55924 | 360 ft | 4 kts | 85° |
| 2026-05-07 13:59 | 48.99610 | 2.55994 | 357 ft | 22 kts | 85° |
| 2026-05-07 14:00 | 48.99643 | 2.56615 | 361 ft | 93 kts | 85° |
| 2026-05-07 14:00 | 48.99716 | 2.57933 | 363 ft | 149 kts | 85° |
| 2026-05-07 14:00 | 48.99805 | 2.59682 | 561 ft | 174 kts | 85° |
| 2026-05-07 14:00 | 48.99902 | 2.61510 | 1211 ft | 173 kts | 83° |
| 2026-05-07 14:01 | 49.00016 | 2.63337 | 1883 ft | 173 kts | 83° |
| 2026-05-07 14:01 | 49.00122 | 2.65151 | 2483 ft | 175 kts | 83° |
| 2026-05-07 14:01 | 49.00233 | 2.67093 | 2824 ft | 193 kts | 84° |
| 2026-05-07 14:01 | 49.00351 | 2.69243 | 3120 ft | 214 kts | 85° |
| 2026-05-07 14:02 | 49.00470 | 2.71635 | 3444 ft | 237 kts | 85° |
| 2026-05-07 14:02 | 49.00589 | 2.74237 | 3902 ft | 257 kts | 85° |
| 2026-05-07 14:02 | 49.00708 | 2.77018 | 4533 ft | 268 kts | 86° |
| 2026-05-07 14:02 | 49.00552 | 2.79823 | 5459 ft | 267 kts | 101° |
| 2026-05-07 14:03 | 49.00200 | 2.82615 | 6304 ft | 270 kts | 100° |
| 2026-05-07 14:03 | 48.99875 | 2.85452 | 7080 ft | 274 kts | 99° |
| 2026-05-07 14:03 | 48.99579 | 2.88330 | 7855 ft | 278 kts | 98° |
| 2026-05-07 14:03 | 48.99286 | 2.91256 | 8617 ft | 281 kts | 99° |
| 2026-05-07 14:04 | 48.98988 | 2.94209 | 9352 ft | 285 kts | 99° |
| 2026-05-07 14:04 | 48.98690 | 2.97234 | 10087 ft | 289 kts | 98° |
| 2026-05-07 14:04 | 48.98436 | 3.00181 | 10472 ft | 306 kts | 97° |
| 2026-05-07 14:04 | 48.98166 | 3.03524 | 10673 ft | 329 kts | 97° |
| 2026-05-07 14:05 | 48.97885 | 3.07085 | 10972 ft | 346 kts | 97° |
| 2026-05-07 14:05 | 48.97594 | 3.10740 | 11582 ft | 352 kts | 97° |
| 2026-05-07 14:05 | 48.97291 | 3.14440 | 12233 ft | 356 kts | 97° |
| 2026-05-07 14:05 | 48.96979 | 3.18191 | 12875 ft | 361 kts | 97° |
| 2026-05-07 14:06 | 48.96660 | 3.21994 | 13504 ft | 365 kts | 98° |
| 2026-05-07 14:06 | 48.96361 | 3.25514 | 14078 ft | 368 kts | 98° |
| 2026-05-07 14:07 | 48.96196 | 3.27437 | 14381 ft | 370 kts | 98° |
| 2026-05-07 14:07 | 48.95860 | 3.31337 | 14973 ft | 373 kts | 98° |
| 2026-05-07 14:07 | 48.95518 | 3.35305 | 15567 ft | 377 kts | 98° |
| 2026-05-07 14:07 | 48.95181 | 3.39192 | 16119 ft | 380 kts | 98° |
| 2026-05-07 14:08 | 48.94832 | 3.43193 | 16681 ft | 383 kts | 98° |
| 2026-05-07 14:08 | 48.94474 | 3.47266 | 17235 ft | 386 kts | 98° |
| 2026-05-07 14:08 | 48.94366 | 3.48486 | 17415 ft | 387 kts | 98° |
| 2026-05-07 14:08 | 48.94127 | 3.51191 | 17776 ft | 390 kts | 98° |
| 2026-05-07 14:09 | 48.93769 | 3.55283 | 18299 ft | 393 kts | 97° |
| 2026-05-07 14:09 | 48.93470 | 3.59429 | 18826 ft | 396 kts | 96° |
| 2026-05-07 14:09 | 48.93239 | 3.63638 | 19350 ft | 399 kts | 95° |
| 2026-05-07 14:09 | 48.93045 | 3.67861 | 19849 ft | 403 kts | 94° |
| 2026-05-07 14:10 | 48.92858 | 3.72114 | 20344 ft | 406 kts | 94° |
| 2026-05-07 14:10 | 48.92852 | 3.72252 | 20362 ft | 406 kts | 94° |
| 2026-05-07 14:10 | 48.92807 | 3.73244 | 20477 ft | 406 kts | 94° |
| 2026-05-07 14:10 | 48.92607 | 3.77545 | 20969 ft | 409 kts | 95° |
| 2026-05-07 14:11 | 48.92389 | 3.81887 | 21430 ft | 412 kts | 95° |
| 2026-05-07 14:11 | 48.92157 | 3.86232 | 21884 ft | 415 kts | 95° |
| 2026-05-07 14:11 | 48.91912 | 3.90625 | 22319 ft | 418 kts | 95° |
| 2026-05-07 14:11 | 48.91664 | 3.95044 | 22740 ft | 421 kts | 95° |
| 2026-05-07 14:12 | 48.91415 | 3.99486 | 23012 ft | 423 kts | 95° |
| 2026-05-07 14:12 | 48.91165 | 4.03939 | 23072 ft | 423 kts | 96° |
| 2026-05-07 14:12 | 48.90912 | 4.08404 | 23082 ft | 424 kts | 96° |
| 2026-05-07 14:12 | 48.90654 | 4.12863 | 23082 ft | 424 kts | 96° |
| 2026-05-07 14:13 | 48.90391 | 4.17330 | 23082 ft | 424 kts | 97° |
| 2026-05-07 14:13 | 48.89855 | 4.21722 | 23082 ft | 422 kts | 107° |
| 2026-05-07 14:13 | 48.88861 | 4.25903 | 23082 ft | 421 kts | 116° |
| 2026-05-07 14:13 | 48.87492 | 4.29824 | 23083 ft | 420 kts | 120° |
| 2026-05-07 14:14 | 48.86070 | 4.33704 | 23082 ft | 420 kts | 120° |
| 2026-05-07 14:14 | 48.84649 | 4.37578 | 23082 ft | 420 kts | 120° |
| 2026-05-07 14:14 | 48.83231 | 4.41449 | 23081 ft | 420 kts | 120° |
| 2026-05-07 14:14 | 48.81811 | 4.45322 | 23078 ft | 420 kts | 120° |
| 2026-05-07 14:15 | 48.80409 | 4.49139 | 23076 ft | 420 kts | 120° |
| 2026-05-07 14:15 | 48.78987 | 4.53007 | 23075 ft | 420 kts | 120° |
| 2026-05-07 14:15 | 48.77567 | 4.56862 | 23076 ft | 419 kts | 121° |
| 2026-05-07 14:15 | 48.76140 | 4.60724 | 23074 ft | 419 kts | 121° |
| 2026-05-07 14:16 | 48.74711 | 4.64579 | 23072 ft | 419 kts | 121° |
| 2026-05-07 14:16 | 48.73285 | 4.68426 | 23068 ft | 419 kts | 121° |
| 2026-05-07 14:16 | 48.71862 | 4.72266 | 23066 ft | 419 kts | 121° |
| 2026-05-07 14:16 | 48.70433 | 4.76121 | 23066 ft | 419 kts | 121° |
| 2026-05-07 14:17 | 48.69008 | 4.79960 | 23068 ft | 419 kts | 121° |
| 2026-05-07 14:17 | 48.67576 | 4.83804 | 23068 ft | 419 kts | 121° |
| 2026-05-07 14:17 | 48.66604 | 4.86407 | 23070 ft | 419 kts | 121° |
| 2026-05-07 14:17 | 48.65171 | 4.90242 | 23070 ft | 419 kts | 121° |
| 2026-05-07 14:18 | 48.63751 | 4.94043 | 23069 ft | 420 kts | 121° |
| 2026-05-07 14:18 | 48.62295 | 4.97950 | 23070 ft | 420 kts | 121° |
| 2026-05-07 14:18 | 48.60996 | 5.01821 | 23070 ft | 421 kts | 111° |
| 2026-05-07 14:18 | 48.60354 | 5.06186 | 23071 ft | 422 kts | 96° |
| 2026-05-07 14:19 | 48.60118 | 5.10539 | 23066 ft | 422 kts | 95° |
| 2026-05-07 14:19 | 48.59888 | 5.14955 | 23063 ft | 423 kts | 95° |
| 2026-05-07 14:19 | 48.59664 | 5.19384 | 23057 ft | 423 kts | 95° |
| 2026-05-07 14:19 | 48.59439 | 5.23834 | 23051 ft | 423 kts | 95° |
| 2026-05-07 14:20 | 48.59209 | 5.28262 | 23041 ft | 423 kts | 95° |
| 2026-05-07 14:20 | 48.58973 | 5.32689 | 23036 ft | 423 kts | 95° |
| 2026-05-07 14:20 | 48.58734 | 5.37115 | 23027 ft | 423 kts | 95° |
| 2026-05-07 14:20 | 48.58493 | 5.41547 | 23021 ft | 423 kts | 95° |
| 2026-05-07 14:21 | 48.58254 | 5.45972 | 23019 ft | 424 kts | 95° |
| 2026-05-07 14:21 | 48.58012 | 5.50412 | 23016 ft | 424 kts | 96° |
| 2026-05-07 14:21 | 48.57768 | 5.54828 | 23017 ft | 424 kts | 96° |
| 2026-05-07 14:21 | 48.57517 | 5.59277 | 23016 ft | 424 kts | 96° |
| 2026-05-07 14:22 | 48.57264 | 5.63715 | 23018 ft | 424 kts | 96° |
| 2026-05-07 14:22 | 48.57014 | 5.68174 | 23023 ft | 424 kts | 96° |
| 2026-05-07 14:22 | 48.56762 | 5.72589 | 23024 ft | 424 kts | 96° |
| 2026-05-07 14:22 | 48.56504 | 5.77026 | 23031 ft | 424 kts | 96° |
| 2026-05-07 14:23 | 48.56246 | 5.81462 | 23037 ft | 425 kts | 96° |
| 2026-05-07 14:23 | 48.55988 | 5.85927 | 23029 ft | 425 kts | 96° |
| 2026-05-07 14:23 | 48.55732 | 5.90360 | 23040 ft | 425 kts | 96° |
| 2026-05-07 14:23 | 48.55471 | 5.94800 | 23041 ft | 425 kts | 96° |
| 2026-05-07 14:24 | 48.55204 | 5.99251 | 23038 ft | 425 kts | 96° |
| 2026-05-07 14:24 | 48.54935 | 6.03686 | 23043 ft | 425 kts | 96° |
| 2026-05-07 14:24 | 48.54664 | 6.08126 | 23045 ft | 425 kts | 96° |
| 2026-05-07 14:24 | 48.54397 | 6.12558 | 23042 ft | 425 kts | 96° |
| 2026-05-07 14:25 | 48.54130 | 6.16999 | 23046 ft | 425 kts | 96° |
| 2026-05-07 14:25 | 48.53864 | 6.21447 | 23046 ft | 425 kts | 96° |
| 2026-05-07 14:25 | 48.53594 | 6.25869 | 23048 ft | 425 kts | 96° |
| 2026-05-07 14:25 | 48.53317 | 6.30326 | 23045 ft | 425 kts | 96° |
| 2026-05-07 14:26 | 48.53044 | 6.34751 | 23049 ft | 425 kts | 96° |
| 2026-05-07 14:26 | 48.52766 | 6.39221 | 23045 ft | 425 kts | 96° |
| 2026-05-07 14:26 | 48.52489 | 6.43647 | 23047 ft | 425 kts | 96° |
| 2026-05-07 14:26 | 48.52205 | 6.48076 | 23044 ft | 425 kts | 96° |
| 2026-05-07 14:27 | 48.51915 | 6.52518 | 23042 ft | 425 kts | 96° |
| 2026-05-07 14:27 | 48.51625 | 6.56948 | 23044 ft | 425 kts | 96° |
| 2026-05-07 14:27 | 48.51337 | 6.61380 | 23049 ft | 425 kts | 96° |
| 2026-05-07 14:27 | 48.51050 | 6.65818 | 23050 ft | 425 kts | 96° |
| 2026-05-07 14:28 | 48.50762 | 6.70245 | 23047 ft | 425 kts | 96° |
| 2026-05-07 14:28 | 48.50474 | 6.74662 | 23056 ft | 425 kts | 96° |
| 2026-05-07 14:28 | 48.50179 | 6.79110 | 23053 ft | 425 kts | 96° |
| 2026-05-07 14:28 | 48.49883 | 6.83541 | 23050 ft | 425 kts | 96° |
| 2026-05-07 14:29 | 48.49585 | 6.87962 | 23051 ft | 425 kts | 96° |
| 2026-05-07 14:29 | 48.49285 | 6.92388 | 23046 ft | 425 kts | 96° |
| 2026-05-07 14:29 | 48.48985 | 6.96816 | 23044 ft | 424 kts | 96° |
| 2026-05-07 14:29 | 48.48682 | 7.01252 | 23043 ft | 424 kts | 96° |
| 2026-05-07 14:30 | 48.48375 | 7.05734 | 23057 ft | 436 kts | 96° |
| 2026-05-07 14:30 | 48.48060 | 7.10351 | 23055 ft | 449 kts | 96° |
| 2026-05-07 14:30 | 48.47737 | 7.15000 | 23054 ft | 455 kts | 96° |
| 2026-05-07 14:30 | 48.47398 | 7.19819 | 23054 ft | 457 kts | 96° |
| 2026-05-07 14:31 | 48.47064 | 7.24583 | 23054 ft | 458 kts | 96° |
| 2026-05-07 14:31 | 48.46732 | 7.29362 | 23054 ft | 459 kts | 96° |
| 2026-05-07 14:31 | 48.46399 | 7.34082 | 23055 ft | 459 kts | 96° |
| 2026-05-07 14:31 | 48.46057 | 7.38856 | 23054 ft | 459 kts | 96° |
| 2026-05-07 14:32 | 48.45704 | 7.43702 | 23053 ft | 459 kts | 96° |
| 2026-05-07 14:32 | 48.45359 | 7.48480 | 23054 ft | 459 kts | 96° |
| 2026-05-07 14:32 | 48.45009 | 7.53255 | 23054 ft | 459 kts | 96° |
| 2026-05-07 14:32 | 48.44660 | 7.57946 | 23052 ft | 459 kts | 96° |
| 2026-05-07 14:33 | 48.44305 | 7.62710 | 23052 ft | 458 kts | 96° |
| 2026-05-07 14:33 | 48.43948 | 7.67499 | 23050 ft | 458 kts | 96° |
| 2026-05-07 14:33 | 48.43591 | 7.72264 | 23049 ft | 458 kts | 96° |
| 2026-05-07 14:33 | 48.43253 | 7.77011 | 23049 ft | 458 kts | 95° |
| 2026-05-07 14:34 | 48.42962 | 7.81797 | 23052 ft | 458 kts | 94° |
| 2026-05-07 14:34 | 48.42709 | 7.86582 | 23046 ft | 458 kts | 94° |
| 2026-05-07 14:34 | 48.42469 | 7.91362 | 23049 ft | 458 kts | 94° |
| 2026-05-07 14:34 | 48.42226 | 7.96130 | 23046 ft | 458 kts | 94° |
| 2026-05-07 14:35 | 48.41969 | 8.00935 | 23050 ft | 458 kts | 94° |
| 2026-05-07 14:35 | 48.41703 | 8.05713 | 23047 ft | 458 kts | 94° |
| 2026-05-07 14:35 | 48.41429 | 8.10494 | 23046 ft | 459 kts | 95° |
| 2026-05-07 14:35 | 48.41148 | 8.15271 | 23049 ft | 459 kts | 95° |
| 2026-05-07 14:36 | 48.40860 | 8.20058 | 23049 ft | 459 kts | 95° |
| 2026-05-07 14:36 | 48.40572 | 8.24855 | 23047 ft | 459 kts | 95° |
| 2026-05-07 14:36 | 48.40285 | 8.29627 | 22799 ft | 458 kts | 95° |
| 2026-05-07 14:36 | 48.40004 | 8.34381 | 22539 ft | 455 kts | 95° |
| 2026-05-07 14:37 | 48.39723 | 8.39110 | 22293 ft | 453 kts | 95° |
| 2026-05-07 14:37 | 48.39149 | 8.48522 | 21789 ft | 449 kts | 95° |
| 2026-05-07 14:37 | 48.38859 | 8.53197 | 21539 ft | 447 kts | 95° |
| 2026-05-07 14:38 | 48.38570 | 8.57838 | 21238 ft | 446 kts | 95° |
| 2026-05-07 14:38 | 48.38282 | 8.62468 | 20698 ft | 442 kts | 95° |
| 2026-05-07 14:38 | 48.38034 | 8.67061 | 20183 ft | 438 kts | 93° |
| 2026-05-07 14:38 | 48.37900 | 8.71699 | 19656 ft | 450 kts | 91° |
| 2026-05-07 14:39 | 48.37842 | 8.76424 | 19101 ft | 451 kts | 90° |
| 2026-05-07 14:39 | 48.37823 | 8.81116 | 18538 ft | 448 kts | 90° |
| 2026-05-07 14:39 | 48.37804 | 8.85780 | 17983 ft | 445 kts | 90° |
| 2026-05-07 14:39 | 48.37767 | 8.90463 | 17425 ft | 442 kts | 91° |
| 2026-05-07 14:40 | 48.37707 | 8.95033 | 16870 ft | 439 kts | 91° |
| 2026-05-07 14:40 | 48.37629 | 8.99611 | 16326 ft | 436 kts | 91° |
| 2026-05-07 14:40 | 48.37543 | 9.04155 | 15781 ft | 434 kts | 91° |
| 2026-05-07 14:40 | 48.37453 | 9.08674 | 15235 ft | 431 kts | 92° |
| 2026-05-07 14:41 | 48.37364 | 9.13164 | 14697 ft | 428 kts | 92° |
| 2026-05-07 14:41 | 48.37274 | 9.17587 | 14440 ft | 416 kts | 92° |
| 2026-05-07 14:41 | 48.37186 | 9.21833 | 14287 ft | 395 kts | 92° |
| 2026-05-07 14:41 | 48.37101 | 9.25882 | 13604 ft | 381 kts | 92° |
| 2026-05-07 14:42 | 48.37195 | 9.29833 | 12739 ft | 375 kts | 79° |
| 2026-05-07 14:42 | 48.37979 | 9.33476 | 12132 ft | 361 kts | 62° |
| 2026-05-07 14:42 | 48.39347 | 9.36531 | 11658 ft | 343 kts | 46° |
| 2026-05-07 14:42 | 48.41108 | 9.38817 | 11181 ft | 328 kts | 30° |
| 2026-05-07 14:43 | 48.43096 | 9.40340 | 10728 ft | 314 kts | 21° |
| 2026-05-07 14:43 | 48.45073 | 9.41678 | 10344 ft | 307 kts | 22° |
| 2026-05-07 14:43 | 48.46988 | 9.42976 | 9958 ft | 296 kts | 22° |
| 2026-05-07 14:43 | 48.48867 | 9.44255 | 9841 ft | 297 kts | 22° |
| 2026-05-07 14:44 | 48.50740 | 9.45526 | 9713 ft | 295 kts | 22° |
| 2026-05-07 14:44 | 48.52607 | 9.46793 | 9587 ft | 294 kts | 22° |
| 2026-05-07 14:44 | 48.54470 | 9.48060 | 9269 ft | 296 kts | 22° |
| 2026-05-07 14:44 | 48.56348 | 9.49337 | 8883 ft | 294 kts | 22° |
| 2026-05-07 14:45 | 48.58219 | 9.50612 | 8387 ft | 296 kts | 22° |
| 2026-05-07 14:45 | 48.60054 | 9.51869 | 7871 ft | 288 kts | 22° |
| 2026-05-07 14:45 | 48.61865 | 9.53110 | 7310 ft | 283 kts | 22° |
| 2026-05-07 14:45 | 48.63643 | 9.54327 | 6807 ft | 279 kts | 22° |
| 2026-05-07 14:46 | 48.65404 | 9.55532 | 6330 ft | 276 kts | 22° |
| 2026-05-07 14:46 | 48.67163 | 9.56678 | 5858 ft | 273 kts | 16° |
| 2026-05-07 14:46 | 48.68977 | 9.57180 | 5504 ft | 259 kts | 359° |
| 2026-05-07 14:46 | 48.70750 | 9.56742 | 5082 ft | 254 kts | 336° |
| 2026-05-07 14:47 | 48.72211 | 9.55430 | 4993 ft | 238 kts | 317° |
| 2026-05-07 14:47 | 48.73250 | 9.53576 | 4874 ft | 228 kts | 299° |
| 2026-05-07 14:47 | 48.73839 | 9.51377 | 4693 ft | 223 kts | 282° |
| 2026-05-07 14:47 | 48.73948 | 9.49070 | 4455 ft | 218 kts | 264° |
| 2026-05-07 14:48 | 48.73625 | 9.46883 | 4191 ft | 209 kts | 255° |
| 2026-05-07 14:48 | 48.73235 | 9.44794 | 3922 ft | 203 kts | 255° |
| 2026-05-07 14:48 | 48.72857 | 9.42774 | 3695 ft | 193 kts | 255° |
| 2026-05-07 14:48 | 48.72501 | 9.40870 | 3413 ft | 183 kts | 255° |
| 2026-05-07 14:49 | 48.72162 | 9.39058 | 3166 ft | 174 kts | 255° |
| 2026-05-07 14:49 | 48.71841 | 9.37344 | 2932 ft | 165 kts | 256° |
| 2026-05-07 14:49 | 48.71531 | 9.35694 | 2730 ft | 160 kts | 256° |
| 2026-05-07 14:49 | 48.71229 | 9.34086 | 2514 ft | 158 kts | 256° |
| 2026-05-07 14:50 | 48.70930 | 9.32496 | 2316 ft | 157 kts | 256° |
| 2026-05-07 14:50 | 48.70636 | 9.30937 | 2098 ft | 151 kts | 256° |
| 2026-05-07 14:50 | 48.70353 | 9.29438 | 1900 ft | 146 kts | 256° |
| 2026-05-07 14:50 | 48.70075 | 9.27979 | 1726 ft | 142 kts | 257° |
| 2026-05-07 14:51 | 48.69815 | 9.26574 | 1595 ft | 137 kts | 256° |
| 2026-05-07 14:51 | 48.69550 | 9.25169 | 1478 ft | 144 kts | 257° |
| 2026-05-07 14:51 | 48.69303 | 9.23719 | 2126 ft | 137 kts | 257° |
| 2026-05-07 14:51 | 48.69036 | 9.22371 | 2725 ft | 142 kts | 255° |
| 2026-05-07 14:52 | 48.68705 | 9.20836 | 3114 ft | 154 kts | 254° |
| 2026-05-07 14:52 | 48.68362 | 9.19307 | 3555 ft | 154 kts | 252° |
| 2026-05-07 14:52 | 48.68007 | 9.17738 | 3871 ft | 163 kts | 254° |
| 2026-05-07 14:52 | 48.67678 | 9.15986 | 3981 ft | 185 kts | 256° |
| 2026-05-07 14:53 | 48.67328 | 9.13945 | 3982 ft | 215 kts | 257° |
| 2026-05-07 14:53 | 48.66955 | 9.11715 | 4001 ft | 224 kts | 257° |
| 2026-05-07 14:53 | 48.66566 | 9.09389 | 4008 ft | 225 kts | 257° |
| 2026-05-07 14:53 | 48.66185 | 9.07095 | 4237 ft | 226 kts | 257° |
| 2026-05-07 14:54 | 48.65800 | 9.04788 | 4487 ft | 227 kts | 257° |
| 2026-05-07 14:54 | 48.65417 | 9.02490 | 4733 ft | 228 kts | 257° |
| 2026-05-07 14:54 | 48.65050 | 9.00122 | 5002 ft | 227 kts | 264° |
| 2026-05-07 14:54 | 48.65171 | 8.97779 | 5093 ft | 227 kts | 294° |
| 2026-05-07 14:55 | 48.66201 | 8.96040 | 5277 ft | 228 kts | 333° |